• Join FlightAware (Why Join?)
  • Login
  • US Flag 
12:32AM EDT


 

Airport Tracker/Info


-or-


 

Live Flight TrackerFlight Track Log ✈ N724AE ✈ 15-May-2013 ✈ KDFW - KCVG

Flight Track Log - Related Links

Times and Time Zones

All times are in EDT time to prevent confusion due to time zone crossing. See the N724AE flight status page for this flight to view local times or setup timezone preferences in your user account.

Time Position Orientation Groundspeed Altitude Reporting Facility
EDT Latitude Longitude Course Direction KTS MPH feet Rate Location/Type
10:13AM 32.8833 -97.0333 57° Northeast 160 184 1,500  Level Dallas / Fort Worth TRACON
10:13AM 32.8500 -97.0333 180° South 179 206 2,800 1,800 Climbing Dallas / Fort Worth TRACON
10:14AM 32.8000 -97.0000 151° Southeast 243 280 4,300 2,280 Climbing Dallas / Fort Worth TRACON
10:15AM 32.8024 -96.7595 53° Northeast  Level FlightAware Approximate
10:15AM 32.7667 -96.9333 121° Southeast 268 308 7,200  Level Dallas / Fort Worth TRACON
10:16AM 32.8696 -96.6539 52° Northeast  Level FlightAware Approximate
10:17AM 32.9388 -96.5501 52° Northeast  Level FlightAware Approximate
10:18AM 33.0005 -96.4398 57° Northeast  Level FlightAware Approximate
10:18AM 32.8419 -96.7161 68° East 309 356 12,200  Level Fort Worth Center
10:19AM 32.9039 -96.6192 53° Northeast 354 407 13,900 1,620 Climbing Fort Worth Center
10:20AM 32.9597 -96.5244 55° Northeast 378 435 15,500 1,680 Climbing Fort Worth Center
10:21AM 33.0089 -96.3953 66° East 385 443 17,300 1,560 Climbing Fort Worth Center
10:22AM 33.0475 -96.2908 66° East 385 443 18,700 1,560 Climbing Fort Worth Center
10:23AM 33.0964 -96.1561 67° East 397 457 20,500 1,620 Climbing Fort Worth Center
10:24AM 33.1392 -96.0464 65° Northeast 397 457 22,000 1,620 Climbing Fort Worth Center
10:25AM 33.1875 -95.9067 68° East 397 457 23,800 1,560 Climbing Fort Worth Center
10:26AM 33.2300 -95.7942 66° East 402 463 25,200 1,440 Climbing Fort Worth Center
10:27AM 33.2803 -95.6517 67° East 412 474 26,700 1,440 Climbing Fort Worth Center
10:28AM 33.3181 -95.5167 71° East 419 482 28,100 1,380 Climbing Fort Worth Center
10:29AM 33.3578 -95.3867 70° East 419 482 29,500 1,380 Climbing Fort Worth Center
10:30AM 33.3992 -95.2486 70° East 424 488 30,900 1,440 Climbing Fort Worth Center
10:31AM 33.4386 -95.1083 71° East 434 499 32,400 1,320 Climbing Fort Worth Center
10:32AM 33.4817 -94.9653 70° East 440 506 33,600 1,140 Climbing Fort Worth Center
10:33AM 33.5228 -94.8247 71° East 445 512 34,700 1,020 Climbing Fort Worth Center
10:34AM 33.5614 -94.6789 72° East 450 518 35,700 960 Climbing Fort Worth Center
10:35AM 33.6061 -94.5306 70° East 450 518 36,700 600 Climbing Fort Worth Center
10:36AM 33.6464 -94.3769 72° East 466 536 37,000 120 Climbing Fort Worth Center
10:37AM 33.6944 -94.2181 70° East 479 551 37,000  Level Fort Worth Center
10:38AM 33.7658 -94.0706 60° Northeast 492 566 37,000  Level Fort Worth Center
10:39AM 33.8114 -93.9772 60° Northeast 563 648 37,000  Level Memphis Center
10:40AM 33.8800 -93.8400 59° Northeast 526 605 37,000  Level Memphis Center
10:41AM 33.9464 -93.7000 60° Northeast 490 564 37,000  Level Memphis Center
10:42AM 34.0147 -93.5622 59° Northeast 476 548 37,000  Level Memphis Center
10:43AM 34.0831 -93.4192 60° Northeast 481 554 37,000  Level Memphis Center
10:44AM 34.1575 -93.2789 57° Northeast 486 559 37,000  Level Memphis Center
10:45AM 34.2500 -93.1539 48° Northeast 491 565 37,000  Level Memphis Center
10:46AM 34.3511 -93.0164 48° Northeast 496 571 37,000  Level Memphis Center
10:47AM 34.4436 -92.8831 50° Northeast 501 577 37,000  Level Memphis Center
10:48AM 34.5336 -92.7622 48° Northeast 488 562 37,000  Level Memphis Center
10:49AM 34.6236 -92.6386 48° Northeast 488 562 37,000  Level Memphis Center
10:50AM 34.7133 -92.5172 48° Northeast 483 556 37,000  Level Memphis Center
10:51AM 34.8008 -92.3931 49° Northeast 478 550 37,000  Level Memphis Center
10:52AM 34.8928 -92.2686 48° Northeast 483 556 37,000  Level Memphis Center
10:53AM 34.9842 -92.1414 49° Northeast 483 556 37,000  Level Memphis Center
10:54AM 35.0736 -92.0139 49° Northeast 483 556 37,000  Level Memphis Center
10:55AM 35.1650 -91.8861 49° Northeast 483 556 37,000  Level Memphis Center
10:56AM 35.2583 -91.7581 48° Northeast 488 562 37,000  Level Memphis Center
10:57AM 35.3494 -91.6272 49° Northeast 493 567 37,000  Level Memphis Center
10:58AM 35.4403 -91.5039 48° Northeast 493 567 37,000  Level Memphis Center
10:59AM 35.5247 -91.3775 51° Northeast 486 559 37,000  Level Memphis Center
11:00AM 35.6133 -91.2586 47° Northeast 472 543 37,000  Level Memphis Center
11:01AM 35.6892 -91.1367 53° Northeast 467 537 37,000  Level Memphis Center
11:02AM 35.7733 -91.0172 49° Northeast 459 528 37,000  Level Memphis Center
11:03AM 35.8592 -90.8975 48° Northeast 459 528 37,000  Level Memphis Center
11:04AM 35.9453 -90.7750 49° Northeast 454 522 37,000  Level Memphis Center
11:05AM 36.0311 -90.6522 49° Northeast 454 522 37,000  Level Memphis Center
11:06AM 36.1147 -90.5267 50° Northeast 459 528 37,000  Level Memphis Center
11:07AM 36.1983 -90.4033 50° Northeast 459 528 37,000  Level Memphis Center
11:08AM 36.2836 -90.2772 50° Northeast 459 528 37,000 -120 Level Memphis Center
11:09AM 36.3689 -90.1533 49° Northeast 465 535 36,800 -660 Descending Memphis Center
11:10AM 36.4458 -90.0422 49° Northeast 470 541 35,700 -900 Descending Memphis Center
11:11AM 36.5308 -89.9153 50° Northeast 475 547 35,000 -360 Descending Memphis Center
11:12AM 36.6117 -89.7986 49° Northeast 469 540 35,000  Level Memphis Center
11:13AM 36.6944 -89.6764 50° Northeast 457 526 35,000  Level Memphis Center
11:14AM 36.7772 -89.5539 50° Northeast 457 526 35,000  Level Memphis Center
11:15AM 36.8575 -89.4286 51° Northeast 457 526 35,000  Level Memphis Center
11:16AM 36.9419 -89.3006 50° Northeast 457 526 35,000  Level Memphis Center
11:17AM 37.0242 -89.1747 51° Northeast 457 526 35,000  Level Memphis Center
11:18AM 37.1083 -89.0486 50° Northeast 457 526 35,000 -240 Level Memphis Center
11:19AM 37.1903 -88.9197 51° Northeast 462 532 34,600 -780 Descending Memphis Center
11:20AM 37.2742 -88.7931 50° Northeast 462 532 33,500 -1,080 Descending Memphis Center
11:21AM 37.3536 -88.6714 51° Northeast 457 526 32,500 -840 Descending Memphis Center
11:23AM 37.5178 -88.4078 52° Northeast 439 505 31,000 -480 Descending Indianapolis Center
11:24AM 37.5939 -88.2886 51° Northeast 436 502 31,000  Level Indianapolis Center
11:25AM 37.6811 -88.1544 51° Northeast 440 506 31,000  Level Indianapolis Center
11:26AM 37.7567 -88.0275 53° Northeast 446 513 31,000  Level Indianapolis Center
11:27AM 37.8022 -87.8989 66° East 455 524 31,000  Level Indianapolis Center
11:28AM 37.8644 -87.7239 66° East 455 524 31,000  Level Indianapolis Center
11:29AM 37.9164 -87.5792 65° Northeast 452 520 31,000 -120 Level Indianapolis Center
11:30AM 37.9675 -87.4347 66° East 450 518 30,800 -780 Descending Indianapolis Center
11:31AM 38.0189 -87.2908 66° East 448 516 29,500 -1,320 Descending Indianapolis Center
11:32AM 38.0708 -87.1422 66° East 459 528 28,100 -1,440 Descending Indianapolis Center
11:33AM 38.1239 -86.9922 66° East 470 541 26,600 -1,860 Descending Indianapolis Center
11:34AM 38.1875 -86.8081 66° East 481 554 24,400 -1,800 Descending Indianapolis Center
11:35AM 38.2381 -86.6658 66° East 447 514 23,000 -1,740 Descending Indianapolis Center
11:36AM 38.2861 -86.5250 66° East 435 501 20,900 -2,220 Descending Indianapolis Center
11:37AM 38.3356 -86.3806 66° East 444 511 18,500 -2,100 Descending Indianapolis Center
11:38AM 38.3831 -86.2422 66° East 431 496 16,700 -1,860 Descending Indianapolis Center
11:39AM 38.4303 -86.1058 66° East 422 486 14,800 -1,800 Descending Indianapolis Center
11:40AM 38.4750 -85.9725 67° East 416 479 13,000 -1,800 Descending Indianapolis Center
11:41AM 38.5308 -85.8111 66° East 413 475 11,200 -960 Descending Indianapolis Center
11:42AM 38.5753 -85.6778 67° East 409 471 11,100 -60 Descending Indianapolis Center
11:43AM 38.6264 -85.5519 62° Northeast 398 458 11,100 -60 Level Indianapolis Center
11:44AM 38.6806 -85.4350 59° Northeast 395 455 11,000 -60 Descending Indianapolis Center
11:45AM 38.7344 -85.3139 60° Northeast 394 453 11,000  Level Indianapolis Center
11:46AM 38.7869 -85.1919 61° Northeast 393 452 11,000  Level Indianapolis Center
11:47AM 38.8492 -85.0444 62° Northeast 396 456 11,000  Level Indianapolis Center
11:49AM 38.9039 -84.9197 61° Northeast 402 463 11,000 -660 Level Indianapolis Center
11:50AM 38.9536 -84.8056 61° Northeast 358 412 9,700 -1,140 Descending Indianapolis Center
11:51AM 39.0358 -84.7792 14° North 305 351 8,700 -1,380 Descending Indianapolis Center
11:52AM 39.1161 -84.7786 360° North 289 333 6,900 -1,740 Descending Indianapolis Center
11:53AM 39.2000 -84.7667 North 276 318 5,100 -1,740 Descending Cincinnati TRACON